Ica, Peru
Current Conditions -  °F | °C
As of 1:00 PM on Friday 24 Oct 2014 (Local Time) from SPSO Reporting Station
Few Clouds Few Clouds  
Wind Chill: 72°   Ceiling: Unl
Heat Index: 72°   Visibility: 6mi
Dew Point: 59°   Wind: 18mph
Humidity: 64%   Direction: 230°SW
Pressure: 29.88"   Gusts: NA
Location:  14.06°S, 75.75°W
Report Text: SPSO 241800Z 23016KT 9999 FEW100 22/15 Q1012 RMK BIRD HAZARDRWY 22/04 PP000
Loading
Personal Weather Stations






























Interactive Weather Map
Tropical Storm Tracking
New forecast layout! Learn more

10-Day Weather Forecast

Advertisements
Track Severe Weather on mobile